To NAV CANADA Home Page Login to a new session Search on AWWS site Feedback and Comments Disclaimer Vers la page française équivalente Tips FAQ What's new on the site To the Forecasts and Observations / NOTAM section To "File a Flight Plan" website Publications and other links Update of the User's profile FIC Telephone Numbers My Weather Data Folder Route Weather Data Regional Weather Data Local Weather Data To the Forecasts and Observations / NOTAM section
Request Generated 07/27/2016 at 15:23:33 UTC . Weather information available at that time is displayed.

METAR/TAF

SASKATOON/JOHN G. DIEFENBAKER INTL/SK    

METAR CYXE 271500Z 20005KT 170V240 15SM SCT300 20/11 A3019 RMK CI3
SLP230 DENSITY ALT 2200FT=
METAR CYXE 271400Z 20002KT 15SM BKN300 18/12 A3019 RMK CI5 SLP229
DENSITY ALT 2000FT=
METAR CYXE 271300Z 00000KT 15SM BKN280 15/13 A3019 RMK CI6 SLP230=

TAF AMD CYXE 271220Z 2712/2812 15005KT P6SM SCT120 PROB40 2712/2715
1SM BR
FM271900 18008KT P6SM SCT040
FM280200 18005KT P6SM FEW040
RMK NXT FCST BY 271800Z=
Your time UTC time
Weather data provided by Environment Canada and NAV CANADA